Terminal Aerodrome Forecast
Issued by NWS

Home | Current Version | Previous Version | Graphics & Text | Print | Product List | Glossary On
Versions: 1 2 3 4 5 6 7 8 9 10 11 12 13 14 15
000
FTUS43 KIWX 280500
TAFSBN
TAF
KSBN 280538Z 2806/2906 00000KT P6SM SCT200
     FM281500 15008KT P6SM SCT100 BKN200
     FM282100 16012G18KT P6SM BKN100
     FM290400 16014G22KT P6SM FEW050 BKN150=

USA.gov is the U.S. government's official web portal to all federal, state and local government web resources and services.